createdAt,value
2018-01-27T00:00:10.707Z,984.36
2018-01-27T00:01:10.700Z,984.37
2018-01-27T00:02:10.600Z,984.38
2018-01-27T00:03:10.484Z,984.39
2018-01-27T00:04:10.382Z,984.39
2018-01-27T00:05:10.382Z,984.39
2018-01-27T00:06:10.226Z,984.39
2018-01-27T00:07:10.147Z,984.41
2018-01-27T00:08:10.122Z,984.46
2018-01-27T00:09:09.988Z,984.49
2018-01-27T00:10:09.907Z,984.48
2018-01-27T00:11:09.820Z,984.51
2018-01-27T00:12:09.776Z,984.51
2018-01-27T00:13:09.652Z,984.50
2018-01-27T00:14:09.611Z,984.46
2018-01-27T00:15:09.497Z,984.48
2018-01-27T00:16:09.407Z,984.48
2018-01-27T00:17:09.340Z,984.46
2018-01-27T00:18:09.242Z,984.48
2018-01-27T00:19:09.179Z,984.48
2018-01-27T00:20:09.083Z,984.52
2018-01-27T00:21:09.009Z,984.48
2018-01-27T00:22:08.971Z,984.46
2018-01-27T00:23:08.872Z,984.49
2018-01-27T00:24:08.810Z,984.50
2018-01-27T00:25:08.677Z,984.49
2018-01-27T00:26:08.632Z,984.51
2018-01-27T00:27:08.580Z,984.49
2018-01-27T00:28:08.498Z,984.50
2018-01-27T00:29:08.427Z,984.53
2018-01-27T00:30:08.303Z,984.52
2018-01-27T00:31:08.294Z,984.48
2018-01-27T00:32:08.119Z,984.46
2018-01-27T00:33:08.095Z,984.45
2018-01-27T00:34:08.029Z,984.45
2018-01-27T00:35:07.917Z,984.44
2018-01-27T00:36:07.795Z,984.41
2018-01-27T00:37:07.739Z,984.37
2018-01-27T00:38:07.653Z,984.40
2018-01-27T00:39:07.565Z,984.41
2018-01-27T00:40:07.468Z,984.42
2018-01-27T00:41:07.385Z,984.44
2018-01-27T00:42:07.296Z,984.44
2018-01-27T00:43:07.247Z,984.48
2018-01-27T00:44:07.172Z,984.51
2018-01-27T00:45:07.080Z,984.54
2018-01-27T00:46:07.022Z,984.59
2018-01-27T00:47:06.892Z,984.59
2018-01-27T00:48:06.858Z,984.59
2018-01-27T00:49:06.728Z,984.62
2018-01-27T00:50:06.729Z,984.67
2018-01-27T00:51:06.602Z,984.62
2018-01-27T00:52:06.493Z,984.62
2018-01-27T00:53:06.406Z,984.60
2018-01-27T00:54:06.381Z,984.61
2018-01-27T00:55:06.301Z,984.57
2018-01-27T00:56:06.168Z,984.59
2018-01-27T00:57:06.150Z,984.58
2018-01-27T00:58:06.045Z,984.60
2018-01-27T00:59:05.980Z,984.61
2018-01-27T01:00:05.871Z,984.60
2018-01-27T01:01:05.793Z,984.65
2018-01-27T01:02:05.706Z,984.65
2018-01-27T01:03:05.622Z,984.70
2018-01-27T01:04:05.521Z,984.69
2018-01-27T01:05:05.445Z,984.68
2018-01-27T01:06:05.429Z,984.74
2018-01-27T01:07:05.304Z,984.75
2018-01-27T01:08:05.193Z,984.75
2018-01-27T01:09:05.178Z,984.79
2018-01-27T01:10:05.083Z,984.74
2018-01-27T01:11:04.979Z,984.75
2018-01-27T01:12:04.901Z,984.75
2018-01-27T01:13:04.810Z,984.75
2018-01-27T01:14:04.740Z,984.74
2018-01-27T01:15:04.631Z,984.74
2018-01-27T01:16:04.553Z,984.71
2018-01-27T01:17:04.560Z,984.77
2018-01-27T01:18:04.381Z,984.76
2018-01-27T01:19:04.412Z,984.77
2018-01-27T01:20:04.251Z,984.79
2018-01-27T01:21:06.064Z,984.78
2018-01-27T01:22:04.125Z,984.77
2018-01-27T01:23:03.987Z,984.82
2018-01-27T01:24:03.973Z,984.86
2018-01-27T01:25:03.821Z,984.91
2018-01-27T01:26:03.738Z,984.93
2018-01-27T01:27:03.667Z,984.92
2018-01-27T01:28:03.621Z,984.99
2018-01-27T01:29:03.584Z,984.94
2018-01-27T01:30:03.446Z,984.97
2018-01-27T01:31:03.356Z,984.98
2018-01-27T01:32:03.297Z,984.98
2018-01-27T01:33:03.269Z,984.97
2018-01-27T01:34:03.144Z,984.97
2018-01-27T01:35:03.063Z,984.93
2018-01-27T01:36:02.968Z,984.92
2018-01-27T01:37:02.901Z,984.88
2018-01-27T01:38:02.838Z,984.83
2018-01-27T01:39:02.761Z,984.84
2018-01-27T01:40:02.690Z,984.82
2018-01-27T01:41:02.522Z,984.83
2018-01-27T01:42:02.603Z,984.88
2018-01-27T01:43:02.502Z,984.86
2018-01-27T01:44:02.432Z,984.87
2018-01-27T01:45:02.255Z,984.91
2018-01-27T01:46:02.261Z,984.88
2018-01-27T01:47:02.130Z,984.88
2018-01-27T01:48:02.070Z,984.89
2018-01-27T01:49:01.980Z,984.87
2018-01-27T01:50:01.890Z,984.88
2018-01-27T01:51:01.813Z,984.87
2018-01-27T01:52:01.650Z,984.86
2018-01-27T01:53:01.627Z,984.90
2018-01-27T01:54:01.473Z,984.93
2018-01-27T01:55:01.424Z,984.91
2018-01-27T01:56:01.408Z,984.93
2018-01-27T01:57:01.261Z,984.98
2018-01-27T01:58:01.184Z,984.95
2018-01-27T01:59:01.134Z,984.98
2018-01-27T02:00:01.013Z,984.98
2018-01-27T02:01:00.935Z,985.01
2018-01-27T02:02:00.853Z,985.02
2018-01-27T02:03:00.773Z,985.02
2018-01-27T02:04:00.736Z,985.01
2018-01-27T02:05:00.578Z,985.03
2018-01-27T02:06:00.528Z,984.98
2018-01-27T02:07:00.474Z,984.98
2018-01-27T02:08:00.382Z,985.00
2018-01-27T02:09:00.333Z,985.03
2018-01-27T02:10:00.236Z,985.03
2018-01-27T02:11:00.152Z,985.04
2018-01-27T02:12:00.034Z,985.06
2018-01-27T02:12:59.978Z,985.04
2018-01-27T02:13:59.904Z,985.03
2018-01-27T02:14:59.864Z,984.99
2018-01-27T02:15:59.751Z,985.03
2018-01-27T02:16:59.635Z,985.03
2018-01-27T02:17:59.528Z,985.01
2018-01-27T02:18:59.445Z,985.03
2018-01-27T02:19:59.367Z,985.06
2018-01-27T02:20:59.374Z,985.07
2018-01-27T02:21:59.225Z,985.06
2018-01-27T02:22:59.170Z,985.06
2018-01-27T02:23:59.051Z,985.08
2018-01-27T02:24:59.020Z,985.04
2018-01-27T02:25:58.892Z,985.09
2018-01-27T02:26:58.883Z,985.04
2018-01-27T02:27:58.797Z,985.07
2018-01-27T02:28:58.668Z,985.07
2018-01-27T02:29:58.642Z,985.04
2018-01-27T02:30:58.489Z,985.02
2018-01-27T02:31:58.446Z,985.04
2018-01-27T02:32:58.419Z,985.03
2018-01-27T02:33:58.280Z,985.04
2018-01-27T02:34:58.263Z,985.06
2018-01-27T02:35:58.135Z,985.07
2018-01-27T02:37:00.638Z,985.09
2018-01-27T02:37:57.908Z,985.12
2018-01-27T02:38:57.862Z,985.10
2018-01-27T02:39:57.763Z,985.13
2018-01-27T02:40:57.664Z,985.11
2018-01-27T02:41:57.633Z,985.15
2018-01-27T02:42:57.549Z,985.19
2018-01-27T02:43:57.452Z,985.17
2018-01-27T02:44:57.362Z,985.19
2018-01-27T02:45:57.254Z,985.17
2018-01-27T02:46:57.183Z,985.17
2018-01-27T02:47:57.123Z,985.18
2018-01-27T02:48:57.014Z,985.16
2018-01-27T02:49:56.984Z,985.19
2018-01-27T02:50:56.891Z,985.16
2018-01-27T02:51:56.813Z,985.16
2018-01-27T02:52:56.751Z,985.21
2018-01-27T02:53:56.612Z,985.23
2018-01-27T02:54:56.582Z,985.26
2018-01-27T02:55:56.453Z,985.29
2018-01-27T02:56:56.423Z,985.27
2018-01-27T02:57:56.384Z,985.29
2018-01-27T02:58:56.258Z,985.31
2018-01-27T02:59:56.126Z,985.37
2018-01-27T03:00:56.174Z,985.39
2018-01-27T03:01:56.020Z,985.43
2018-01-27T03:02:55.981Z,985.47
2018-01-27T03:03:55.887Z,985.49
2018-01-27T03:04:55.797Z,985.52
2018-01-27T03:05:55.736Z,985.50
2018-01-27T03:06:55.563Z,985.51
2018-01-27T03:07:55.482Z,985.55
2018-01-27T03:08:55.444Z,985.55
2018-01-27T03:09:55.349Z,985.52
2018-01-27T03:10:55.266Z,985.50
2018-01-27T03:11:55.203Z,985.49
2018-01-27T03:12:55.119Z,985.51
2018-01-27T03:13:54.993Z,985.49
2018-01-27T03:14:54.936Z,985.51
2018-01-27T03:15:54.828Z,985.51
2018-01-27T03:16:54.755Z,985.54
2018-01-27T03:17:54.692Z,985.56
2018-01-27T03:18:54.607Z,985.58
2018-01-27T03:19:54.519Z,985.59
2018-01-27T03:20:54.424Z,985.60
2018-01-27T03:21:54.376Z,985.65
2018-01-27T03:22:54.318Z,985.67
2018-01-27T03:23:54.210Z,985.68
2018-01-27T03:24:54.122Z,985.68
2018-01-27T03:25:54.025Z,985.68
2018-01-27T03:26:53.989Z,985.68
2018-01-27T03:27:53.861Z,985.72
2018-01-27T03:28:53.797Z,985.74
2018-01-27T03:29:53.705Z,985.76
2018-01-27T03:30:53.619Z,985.75
2018-01-27T03:31:53.528Z,985.74
2018-01-27T03:32:53.514Z,985.74
2018-01-27T03:33:53.494Z,985.80
2018-01-27T03:34:53.284Z,985.77
2018-01-27T03:35:53.243Z,985.80
2018-01-27T03:36:53.127Z,985.81
2018-01-27T03:37:53.079Z,985.78
2018-01-27T03:38:52.970Z,985.80
2018-01-27T03:39:52.887Z,985.83
2018-01-27T03:40:52.870Z,985.80
2018-01-27T03:41:52.789Z,985.81
2018-01-27T03:42:52.647Z,985.80
2018-01-27T03:43:52.623Z,985.79
2018-01-27T03:44:52.483Z,985.83
2018-01-27T03:45:52.430Z,985.81
2018-01-27T03:46:52.312Z,985.82
2018-01-27T03:47:52.297Z,985.84
2018-01-27T03:48:52.212Z,985.90
2018-01-27T03:49:52.091Z,985.91
2018-01-27T03:50:52.068Z,985.92
2018-01-27T03:51:51.976Z,985.92
2018-01-27T03:52:51.834Z,985.94
2018-01-27T03:53:51.790Z,985.97
2018-01-27T03:54:51.699Z,986.00
2018-01-27T03:55:51.625Z,986.03
2018-01-27T03:56:51.533Z,986.04
2018-01-27T03:57:51.476Z,986.02
2018-01-27T03:58:51.336Z,986.02
2018-01-27T03:59:51.256Z,986.02
2018-01-27T04:00:51.221Z,986.04
2018-01-27T04:01:51.149Z,986.02
2018-01-27T04:02:51.014Z,986.01
2018-01-27T04:03:50.933Z,986.03
2018-01-27T04:04:50.961Z,986.06
2018-01-27T04:05:50.851Z,986.05
2018-01-27T04:06:50.753Z,986.09
2018-01-27T04:07:50.656Z,986.13
2018-01-27T04:08:50.578Z,986.12
2018-01-27T04:09:50.456Z,986.18
2018-01-27T04:10:50.478Z,986.20
2018-01-27T04:11:50.425Z,986.19
2018-01-27T04:12:50.250Z,986.23
2018-01-27T04:13:50.121Z,986.23
2018-01-27T04:14:50.046Z,986.23
2018-01-27T04:15:49.964Z,986.21
2018-01-27T04:16:49.911Z,986.22
2018-01-27T04:17:49.855Z,986.22
2018-01-27T04:18:49.784Z,986.27
2018-01-27T04:19:49.638Z,986.27
2018-01-27T04:20:49.578Z,986.31
2018-01-27T04:21:49.485Z,986.32
2018-01-27T04:22:49.413Z,986.35
2018-01-27T04:23:49.340Z,986.35
2018-01-27T04:24:49.263Z,986.38
2018-01-27T04:25:49.162Z,986.39
2018-01-27T04:26:49.068Z,986.43
2018-01-27T04:27:48.987Z,986.45
2018-01-27T04:28:48.904Z,986.43
2018-01-27T04:29:48.857Z,986.47
2018-01-27T04:30:48.816Z,986.50
2018-01-27T04:31:48.689Z,986.50
2018-01-27T04:32:48.606Z,986.48
2018-01-27T04:33:48.560Z,986.51
2018-01-27T04:34:48.458Z,986.54
2018-01-27T04:35:48.342Z,986.50
2018-01-27T04:36:48.286Z,986.56
2018-01-27T04:37:48.196Z,986.58
2018-01-27T04:38:48.131Z,986.57
2018-01-27T04:39:48.076Z,986.61
2018-01-27T04:40:47.995Z,986.59
2018-01-27T04:41:47.853Z,986.63
2018-01-27T04:42:47.840Z,986.66
2018-01-27T04:43:47.688Z,986.74
2018-01-27T04:44:47.633Z,986.77
2018-01-27T04:45:47.554Z,986.84
2018-01-27T04:46:47.473Z,986.82
2018-01-27T04:47:47.361Z,986.83
2018-01-27T04:48:47.278Z,986.84
2018-01-27T04:49:47.209Z,986.85
2018-01-27T04:50:47.119Z,986.83
2018-01-27T04:51:47.053Z,986.79
2018-01-27T04:52:46.989Z,986.78
2018-01-27T04:53:46.913Z,986.71
2018-01-27T04:54:46.809Z,986.75
2018-01-27T04:55:46.868Z,986.77
2018-01-27T04:56:46.632Z,986.75
2018-01-27T04:57:46.581Z,986.80
2018-01-27T04:58:46.636Z,986.82
2018-01-27T04:59:46.418Z,986.88
2018-01-27T05:00:46.329Z,986.87
2018-01-27T05:01:46.231Z,986.85
2018-01-27T05:02:46.170Z,986.88
2018-01-27T05:03:46.108Z,986.85
2018-01-27T05:04:45.981Z,986.87
2018-01-27T05:05:45.936Z,986.88
2018-01-27T05:06:45.900Z,986.91
2018-01-27T05:07:45.812Z,986.89
2018-01-27T05:08:45.672Z,986.91
2018-01-27T05:09:45.655Z,986.92
2018-01-27T05:10:45.519Z,986.92
2018-01-27T05:11:45.411Z,986.95
2018-01-27T05:12:45.367Z,986.97
2018-01-27T05:13:45.264Z,987.00
2018-01-27T05:14:45.259Z,987.01
2018-01-27T05:15:45.154Z,987.02
2018-01-27T05:16:45.146Z,987.08
2018-01-27T05:17:47.656Z,987.08
2018-01-27T05:18:44.911Z,987.11
2018-01-27T05:19:44.879Z,987.13
2018-01-27T05:20:44.707Z,987.12
2018-01-27T05:21:44.630Z,987.13
2018-01-27T05:22:44.640Z,987.15
2018-01-27T05:23:44.553Z,987.16
2018-01-27T05:24:44.372Z,987.12
2018-01-27T05:25:44.320Z,987.10
2018-01-27T05:26:44.195Z,987.12
2018-01-27T05:27:44.187Z,987.09
2018-01-27T05:28:44.042Z,987.13
2018-01-27T05:29:43.988Z,987.16
2018-01-27T05:30:43.927Z,987.16
2018-01-27T05:31:43.857Z,987.22
2018-01-27T05:32:43.782Z,987.25
2018-01-27T05:33:43.659Z,987.22
2018-01-27T05:34:43.591Z,987.24
2018-01-27T05:35:43.520Z,987.19
2018-01-27T05:36:43.439Z,987.22
2018-01-27T05:37:43.365Z,987.25
2018-01-27T05:38:43.260Z,987.24
2018-01-27T05:39:43.207Z,987.27
2018-01-27T05:40:43.056Z,987.25
2018-01-27T05:41:43.037Z,987.29
2018-01-27T05:42:42.922Z,987.31
2018-01-27T05:43:42.838Z,987.31
2018-01-27T05:44:42.771Z,987.32
2018-01-27T05:45:42.661Z,987.37
2018-01-27T05:46:42.656Z,987.36
2018-01-27T05:47:42.534Z,987.37
2018-01-27T05:48:42.438Z,987.37
2018-01-27T05:49:42.350Z,987.35
2018-01-27T05:50:42.270Z,987.35
2018-01-27T05:51:42.168Z,987.35
2018-01-27T05:52:42.168Z,987.40
2018-01-27T05:53:42.110Z,987.43
2018-01-27T05:54:41.969Z,987.47
2018-01-27T05:55:41.896Z,987.54
2018-01-27T05:56:41.805Z,987.55
2018-01-27T05:57:41.780Z,987.61
2018-01-27T05:58:41.665Z,987.60
2018-01-27T05:59:41.586Z,987.63
2018-01-27T06:00:41.549Z,987.66
2018-01-27T06:01:41.348Z,987.64
2018-01-27T06:02:41.298Z,987.69
2018-01-27T06:03:41.271Z,987.69
2018-01-27T06:04:41.130Z,987.71
2018-01-27T06:05:41.128Z,987.68
2018-01-27T06:06:41.073Z,987.73
2018-01-27T06:07:40.980Z,987.72
2018-01-27T06:08:40.866Z,987.75
2018-01-27T06:09:40.797Z,987.77
2018-01-27T06:10:40.654Z,987.80
2018-01-27T06:11:40.558Z,987.83
2018-01-27T06:12:40.554Z,987.88
2018-01-27T06:13:40.471Z,987.88
2018-01-27T06:14:40.398Z,987.84
2018-01-27T06:15:40.301Z,987.87
2018-01-27T06:16:40.241Z,987.87
2018-01-27T06:17:40.128Z,987.86
2018-01-27T06:18:40.058Z,987.89
2018-01-27T06:19:39.977Z,987.87
2018-01-27T06:20:39.848Z,987.91
2018-01-27T06:21:39.785Z,987.92
2018-01-27T06:22:39.737Z,987.93
2018-01-27T06:23:39.609Z,987.96
2018-01-27T06:24:39.491Z,987.95
2018-01-27T06:25:39.400Z,987.96
2018-01-27T06:26:39.336Z,987.95
2018-01-27T06:27:39.256Z,987.99
2018-01-27T06:28:39.228Z,988.00
2018-01-27T06:29:39.111Z,988.08
2018-01-27T06:30:38.991Z,988.06
2018-01-27T06:31:38.941Z,988.08
2018-01-27T06:32:38.859Z,988.06
2018-01-27T06:33:38.752Z,988.07
2018-01-27T06:34:38.748Z,988.08
2018-01-27T06:35:38.584Z,988.06
2018-01-27T06:36:38.499Z,988.10
2018-01-27T06:37:38.487Z,988.11
2018-01-27T06:38:38.364Z,988.12
2018-01-27T06:39:38.258Z,988.16
2018-01-27T06:40:38.238Z,988.22
2018-01-27T06:41:38.194Z,988.28
2018-01-27T06:42:38.031Z,988.24
2018-01-27T06:43:37.965Z,988.24
2018-01-27T06:44:37.857Z,988.27
2018-01-27T06:45:37.768Z,988.25
2018-01-27T06:46:37.747Z,988.24
2018-01-27T06:47:37.609Z,988.21
2018-01-27T06:48:37.530Z,988.23
2018-01-27T06:49:37.483Z,988.22
2018-01-27T06:50:37.367Z,988.26
2018-01-27T06:51:37.290Z,988.27
2018-01-27T06:52:37.231Z,988.30
2018-01-27T06:53:37.131Z,988.29
2018-01-27T06:54:37.038Z,988.29
2018-01-27T06:55:37.012Z,988.33
2018-01-27T06:56:36.909Z,988.36
2018-01-27T06:57:36.802Z,988.33
2018-01-27T06:58:36.715Z,988.32
2018-01-27T06:59:36.634Z,988.28
2018-01-27T07:00:36.592Z,988.33
2018-01-27T07:01:36.508Z,988.30
2018-01-27T07:02:36.451Z,988.32
2018-01-27T07:03:36.323Z,988.36
2018-01-27T07:04:36.221Z,988.39
2018-01-27T07:05:36.218Z,988.42
2018-01-27T07:06:36.096Z,988.45
2018-01-27T07:07:36.121Z,988.45
2018-01-27T07:08:35.946Z,988.52
2018-01-27T07:09:35.837Z,988.48
2018-01-27T07:10:35.853Z,988.51
2018-01-27T07:11:35.675Z,988.50
2018-01-27T07:12:35.630Z,988.53
2018-01-27T07:13:35.569Z,988.55
2018-01-27T07:14:35.418Z,988.51
2018-01-27T07:15:35.372Z,988.56
2018-01-27T07:16:35.292Z,988.58
2018-01-27T07:17:35.209Z,988.61
2018-01-27T07:18:35.123Z,988.60
2018-01-27T07:19:35.005Z,988.63
2018-01-27T07:20:34.925Z,988.64
2018-01-27T07:21:34.880Z,988.65
2018-01-27T07:22:34.771Z,988.66
2018-01-27T07:23:34.724Z,988.66
2018-01-27T07:24:34.642Z,988.67
2018-01-27T07:25:34.568Z,988.71
2018-01-27T07:26:34.491Z,988.69
2018-01-27T07:27:34.359Z,988.68
2018-01-27T07:28:34.316Z,988.74
2018-01-27T07:29:34.190Z,988.72
2018-01-27T07:30:34.153Z,988.76
2018-01-27T07:31:34.087Z,988.75
2018-01-27T07:32:33.980Z,988.77
2018-01-27T07:33:33.979Z,988.78
2018-01-27T07:34:33.835Z,988.80
2018-01-27T07:35:33.857Z,988.81
2018-01-27T07:36:33.708Z,988.78
2018-01-27T07:37:33.563Z,988.82
2018-01-27T07:38:33.524Z,988.83
2018-01-27T07:39:33.403Z,988.84
2018-01-27T07:40:33.303Z,988.83
2018-01-27T07:41:33.263Z,988.85
2018-01-27T07:42:33.180Z,988.85
2018-01-27T07:43:33.084Z,988.84
2018-01-27T07:44:33.003Z,988.84
2018-01-27T07:45:32.919Z,988.86
2018-01-27T07:46:32.888Z,988.88
2018-01-27T07:47:32.826Z,988.89
2018-01-27T07:48:32.687Z,988.89
2018-01-27T07:49:32.569Z,988.86
2018-01-27T07:50:32.558Z,988.91
2018-01-27T07:51:32.426Z,988.88
2018-01-27T07:52:32.337Z,988.94
2018-01-27T07:53:32.323Z,988.97
2018-01-27T07:54:32.312Z,988.98
2018-01-27T07:55:32.097Z,988.98
2018-01-27T07:56:32.025Z,988.98
2018-01-27T07:57:31.971Z,989.01
2018-01-27T07:58:31.877Z,989.00
2018-01-27T07:59:31.854Z,989.02
2018-01-27T08:00:31.740Z,989.03
2018-01-27T08:01:31.639Z,989.00
2018-01-27T08:02:31.573Z,989.01
2018-01-27T08:03:31.489Z,989.02
2018-01-27T08:04:31.431Z,989.03
2018-01-27T08:05:31.367Z,989.05
2018-01-27T08:06:31.267Z,989.05
2018-01-27T08:07:31.192Z,989.07
2018-01-27T08:08:31.050Z,989.08
2018-01-27T08:09:30.982Z,989.09
2018-01-27T08:10:30.979Z,989.12
2018-01-27T08:11:30.819Z,989.15
2018-01-27T08:12:30.805Z,989.13
2018-01-27T08:13:30.688Z,989.14
2018-01-27T08:14:30.555Z,989.15
2018-01-27T08:15:30.498Z,989.17
2018-01-27T08:16:30.453Z,989.22
2018-01-27T08:17:30.375Z,989.23
2018-01-27T08:18:30.213Z,989.26
2018-01-27T08:19:30.186Z,989.26
2018-01-27T08:20:30.091Z,989.27
2018-01-27T08:21:30.001Z,989.26
2018-01-27T08:22:29.956Z,989.24
2018-01-27T08:23:29.913Z,989.20
2018-01-27T08:24:29.750Z,989.16
2018-01-27T08:25:29.697Z,989.16
2018-01-27T08:26:29.642Z,989.15
2018-01-27T08:27:29.590Z,989.17
2018-01-27T08:28:29.426Z,989.14
2018-01-27T08:29:29.423Z,989.19
2018-01-27T08:30:29.283Z,989.18
2018-01-27T08:31:29.204Z,989.22
2018-01-27T08:32:29.064Z,989.24
2018-01-27T08:33:29.115Z,989.24
2018-01-27T08:34:28.911Z,989.23
2018-01-27T08:35:28.838Z,989.22
2018-01-27T08:36:28.748Z,989.24
2018-01-27T08:37:28.810Z,989.28
2018-01-27T08:38:28.656Z,989.29
2018-01-27T08:39:28.601Z,989.30
2018-01-27T08:40:28.421Z,989.32
2018-01-27T08:41:28.350Z,989.32
2018-01-27T08:42:28.265Z,989.34
2018-01-27T08:43:28.178Z,989.37
2018-01-27T08:44:28.114Z,989.38
2018-01-27T08:45:28.025Z,989.37
2018-01-27T08:46:27.933Z,989.41
2018-01-27T08:47:27.912Z,989.42
2018-01-27T08:48:27.823Z,989.41
2018-01-27T08:49:27.707Z,989.42
2018-01-27T08:50:27.655Z,989.46
2018-01-27T08:51:27.531Z,989.47
2018-01-27T08:52:27.474Z,989.49
2018-01-27T08:53:27.397Z,989.48
2018-01-27T08:54:27.277Z,989.54
2018-01-27T08:55:27.196Z,989.54
2018-01-27T08:56:27.113Z,989.55
2018-01-27T08:57:27.086Z,989.54
2018-01-27T08:58:26.955Z,989.59
2018-01-27T08:59:26.875Z,989.60
2018-01-27T09:00:26.824Z,989.62
2018-01-27T09:01:26.716Z,989.63
2018-01-27T09:02:26.697Z,989.63
2018-01-27T09:03:26.546Z,989.68
2018-01-27T09:04:26.498Z,989.69
2018-01-27T09:05:26.419Z,989.69
2018-01-27T09:06:26.312Z,989.70
2018-01-27T09:07:26.230Z,989.68
2018-01-27T09:08:26.210Z,989.70
2018-01-27T09:09:26.100Z,989.73
2018-01-27T09:10:26.022Z,989.71
2018-01-27T09:11:25.906Z,989.73
2018-01-27T09:12:25.906Z,989.75
2018-01-27T09:13:25.787Z,989.76
2018-01-27T09:14:25.730Z,989.79
2018-01-27T09:15:25.639Z,989.81
2018-01-27T09:16:25.497Z,989.84
2018-01-27T09:17:25.495Z,989.84
2018-01-27T09:18:25.402Z,989.87
2018-01-27T09:19:25.306Z,989.82
2018-01-27T09:20:25.230Z,989.83
2018-01-27T09:21:25.170Z,989.83
2018-01-27T09:22:25.064Z,989.83
2018-01-27T09:23:25.086Z,989.82
2018-01-27T09:24:24.929Z,989.80
2018-01-27T09:25:24.848Z,989.81
2018-01-27T09:26:24.699Z,989.83
2018-01-27T09:27:24.605Z,989.83
2018-01-27T09:28:24.635Z,989.82
2018-01-27T09:29:24.536Z,989.82
2018-01-27T09:30:24.387Z,989.86
2018-01-27T09:31:24.319Z,989.92
2018-01-27T09:32:24.200Z,989.88
2018-01-27T09:33:24.175Z,989.92
2018-01-27T09:34:24.047Z,989.90
2018-01-27T09:35:24.111Z,989.93
2018-01-27T09:36:23.927Z,989.98
2018-01-27T09:37:23.820Z,989.97
2018-01-27T09:38:23.791Z,989.97
2018-01-27T09:39:23.731Z,989.99
2018-01-27T09:40:23.545Z,990.01
2018-01-27T09:41:23.480Z,990.01
2018-01-27T09:42:23.402Z,990.01
2018-01-27T09:43:23.334Z,990.08
2018-01-27T09:44:23.286Z,990.09
2018-01-27T09:45:23.168Z,990.14
2018-01-27T09:46:23.110Z,990.16
2018-01-27T09:47:23.043Z,990.12
2018-01-27T09:48:22.981Z,990.18
2018-01-27T09:49:22.877Z,990.15
2018-01-27T09:50:22.780Z,990.15
2018-01-27T09:51:22.694Z,990.15
2018-01-27T09:52:22.577Z,990.15
2018-01-27T09:53:22.541Z,990.17
2018-01-27T09:54:22.448Z,990.19
2018-01-27T09:55:22.390Z,990.26
2018-01-27T09:56:22.246Z,990.23
2018-01-27T09:57:22.257Z,990.21
2018-01-27T09:58:22.100Z,990.20
2018-01-27T09:59:22.018Z,990.19
2018-01-27T10:00:21.954Z,990.14
2018-01-27T10:01:21.862Z,990.18
2018-01-27T10:02:21.796Z,990.17
2018-01-27T10:03:21.682Z,990.16
2018-01-27T10:04:21.610Z,990.15
2018-01-27T10:05:21.611Z,990.11
2018-01-27T10:06:21.591Z,990.15
2018-01-27T10:07:21.412Z,990.13
2018-01-27T10:08:21.316Z,990.09
2018-01-27T10:09:21.235Z,990.08
2018-01-27T10:10:21.124Z,990.12
2018-01-27T10:11:21.107Z,990.14
2018-01-27T10:12:20.972Z,990.16
2018-01-27T10:13:20.912Z,990.22
2018-01-27T10:14:20.805Z,990.23
2018-01-27T10:15:20.816Z,990.24
2018-01-27T10:16:20.665Z,990.30
2018-01-27T10:17:20.591Z,990.29
2018-01-27T10:18:20.513Z,990.29
2018-01-27T10:19:20.420Z,990.28
2018-01-27T10:20:20.378Z,990.27
2018-01-27T10:21:20.316Z,990.27
2018-01-27T10:22:20.187Z,990.28
2018-01-27T10:23:20.061Z,990.29
2018-01-27T10:24:20.054Z,990.31
2018-01-27T10:25:19.901Z,990.31
2018-01-27T10:26:19.860Z,990.29
2018-01-27T10:27:19.813Z,990.30
2018-01-27T10:28:19.672Z,990.27
2018-01-27T10:29:19.577Z,990.28
2018-01-27T10:30:19.529Z,990.26
2018-01-27T10:31:19.428Z,990.30
2018-01-27T10:32:19.405Z,990.32
2018-01-27T10:33:19.268Z,990.33
2018-01-27T10:34:19.209Z,990.35
2018-01-27T10:35:19.096Z,990.38
2018-01-27T10:36:19.052Z,990.38
2018-01-27T10:37:19.016Z,990.42
2018-01-27T10:38:18.969Z,990.41
2018-01-27T10:39:18.905Z,990.46
2018-01-27T10:40:18.718Z,990.47
2018-01-27T10:41:18.708Z,990.49
2018-01-27T10:42:18.596Z,990.49
2018-01-27T10:43:18.496Z,990.48
2018-01-27T10:44:18.474Z,990.50
2018-01-27T10:45:18.308Z,990.53
2018-01-27T10:46:18.329Z,990.54
2018-01-27T10:47:18.196Z,990.46
2018-01-27T10:48:18.114Z,990.50
2018-01-27T10:49:17.980Z,990.46
2018-01-27T10:50:17.877Z,990.45
2018-01-27T10:51:17.832Z,990.46
2018-01-27T10:52:17.722Z,990.45
2018-01-27T10:53:17.716Z,990.49
2018-01-27T10:54:17.547Z,990.43
2018-01-27T10:55:17.461Z,990.44
2018-01-27T10:56:17.411Z,990.46
2018-01-27T10:57:17.348Z,990.49
2018-01-27T10:58:17.240Z,990.49
2018-01-27T10:59:17.255Z,990.51
2018-01-27T11:00:17.144Z,990.51
2018-01-27T11:01:17.033Z,990.53
2018-01-27T11:02:17.046Z,990.52
2018-01-27T11:03:17.097Z,990.56
2018-01-27T11:04:16.852Z,990.60
2018-01-27T11:05:16.714Z,990.65
2018-01-27T11:06:16.724Z,990.69
2018-01-27T11:07:16.559Z,990.66
2018-01-27T11:08:16.518Z,990.66
2018-01-27T11:09:16.408Z,990.66
2018-01-27T11:10:16.334Z,990.69
2018-01-27T11:11:16.307Z,990.69
2018-01-27T11:12:16.119Z,990.67
2018-01-27T11:13:16.135Z,990.72
2018-01-27T11:14:15.956Z,990.74
2018-01-27T11:15:15.947Z,990.74
2018-01-27T11:16:15.758Z,990.74
2018-01-27T11:17:15.722Z,990.78
2018-01-27T11:18:15.692Z,990.77
2018-01-27T11:19:15.533Z,990.79
2018-01-27T11:20:15.519Z,990.79
2018-01-27T11:21:15.411Z,990.80
2018-01-27T11:22:15.332Z,990.84
2018-01-27T11:23:15.268Z,990.84
2018-01-27T11:24:15.174Z,990.82
2018-01-27T11:25:15.095Z,990.82
2018-01-27T11:26:14.991Z,990.82
2018-01-27T11:27:14.919Z,990.80
2018-01-27T11:28:14.881Z,990.84
2018-01-27T11:29:14.739Z,990.85
2018-01-27T11:30:14.679Z,990.79
2018-01-27T11:31:14.645Z,990.81
2018-01-27T11:32:14.533Z,990.76
2018-01-27T11:33:14.418Z,990.79
2018-01-27T11:34:14.339Z,990.79
2018-01-27T11:35:14.263Z,990.82
2018-01-27T11:36:14.202Z,990.84
2018-01-27T11:37:14.091Z,990.83
2018-01-27T11:38:14.130Z,990.88
2018-01-27T11:39:13.933Z,990.89
2018-01-27T11:40:13.908Z,990.92
2018-01-27T11:41:13.772Z,990.96
2018-01-27T11:42:13.677Z,990.95
2018-01-27T11:43:13.623Z,990.96
2018-01-27T11:44:13.533Z,991.00
2018-01-27T11:45:13.407Z,991.03
2018-01-27T11:46:13.418Z,991.04
2018-01-27T11:47:13.279Z,991.06
2018-01-27T11:48:13.197Z,991.00
2018-01-27T11:49:13.086Z,991.03
2018-01-27T11:50:13.005Z,991.04
2018-01-27T11:51:12.923Z,991.04
2018-01-27T11:52:12.848Z,991.06
2018-01-27T11:53:12.760Z,991.06
2018-01-27T11:54:12.691Z,991.11
2018-01-27T11:55:12.600Z,991.10
2018-01-27T11:56:12.530Z,991.08
2018-01-27T11:57:12.529Z,991.06
2018-01-27T11:58:12.430Z,991.05
2018-01-27T11:59:12.321Z,991.05
2018-01-27T12:00:12.227Z,991.10
2018-01-27T12:01:12.120Z,991.11
2018-01-27T12:02:12.077Z,991.11
2018-01-27T12:03:12.014Z,991.13
2018-01-27T12:04:11.982Z,991.13
2018-01-27T12:05:11.788Z,991.12
2018-01-27T12:06:11.703Z,991.13
2018-01-27T12:07:11.641Z,991.15
2018-01-27T12:08:11.564Z,991.12
2018-01-27T12:09:11.510Z,991.14
2018-01-27T12:10:11.384Z,991.12
2018-01-27T12:11:11.365Z,991.09
2018-01-27T12:12:11.243Z,991.11
2018-01-27T12:13:11.160Z,991.09
2018-01-27T12:14:11.054Z,991.12
2018-01-27T12:15:10.979Z,991.10
2018-01-27T12:16:10.937Z,991.09
2018-01-27T12:17:10.821Z,991.07
2018-01-27T12:18:10.784Z,991.09
2018-01-27T12:19:10.742Z,991.06
2018-01-27T12:20:10.594Z,991.00
2018-01-27T12:21:10.528Z,990.99
2018-01-27T12:22:10.474Z,990.97
2018-01-27T12:23:10.362Z,990.93
2018-01-27T12:24:10.306Z,990.91
2018-01-27T12:25:10.188Z,990.90
2018-01-27T12:26:10.116Z,990.92
2018-01-27T12:27:10.031Z,990.88